Time;durP1;ratioP1;P1;durP2;ratioP2;P2;SDS_P1;SDS_P2;PMS_P1;PMS_P2;Temp;Humidity;BMP_temperature;BMP_pressure;BME280_temperature;BME280_humidity;BME280_pressure;Samples;Min_cycle;Max_cycle;Signal;HPM_P1;HPM_P2
2022/12/11 00:00:25;;;;;;;4.35;2.42;;;-0.30;99.90;;;-0.32;87.14;100153.22;5019530;28;20230;-68
2022/12/11 00:02:51;;;;;;;2.85;2.47;;;-0.20;99.90;;;-0.21;86.56;100151.91;5040898;28;20679;-68
2022/12/11 00:05:18;;;;;;;4.95;2.75;;;-0.20;99.90;;;-0.21;86.38;100151.09;5052116;28;20222;-69
2022/12/11 00:07:45;;;;;;;3.45;2.13;;;-0.10;99.90;;;-0.17;86.47;100161.19;5046637;28;20222;-69
2022/12/11 00:10:12;;;;;;;13.55;4.10;;;-0.10;99.90;;;-0.17;86.54;100156.03;5040072;28;20222;-67
2022/12/11 00:12:39;;;;;;;3.83;3.22;;;-0.10;99.90;;;-0.30;87.16;100159.94;5036222;28;20202;-70
2022/12/11 00:15:07;;;;;;;6.20;2.75;;;-0.10;99.90;;;-0.15;86.99;100161.94;5029203;28;20205;-68
2022/12/11 00:17:34;;;;;;;8.43;4.57;;;-0.10;99.90;;;-0.25;87.83;100165.75;5019103;28;20298;-68
2022/12/11 00:20:01;;;;;;;7.85;4.65;;;-0.10;99.90;;;-0.17;87.06;100162.94;5037763;28;20691;-68
2022/12/11 00:22:31;;;;;;;6.03;3.70;;;-0.10;99.90;;;-0.08;87.07;100160.00;5035015;28;20205;-68
2022/12/11 00:24:58;;;;;;;8.82;4.00;;;-0.10;99.90;;;-0.12;87.56;100155.88;5035626;28;20215;-68
2022/12/11 00:27:25;;;;;;;10.18;5.20;;;-0.10;99.90;;;-0.12;87.12;100161.00;5035186;28;20202;-69
2022/12/11 00:29:52;;;;;;;11.15;5.07;;;0.00;99.90;;;-0.10;87.96;100165.19;5036108;28;20225;-68
2022/12/11 00:32:19;;;;;;;7.45;3.85;;;0.00;99.90;;;-0.05;87.33;100162.47;5052189;28;20201;-67
2022/12/11 00:34:45;;;;;;;3.63;3.08;;;0.00;99.90;;;-0.10;87.90;100164.34;5036476;28;20211;-69
2022/12/11 00:37:12;;;;;;;6.65;3.67;;;0.00;99.90;;;0.03;87.37;100169.88;5033853;28;20198;-68
2022/12/11 00:39:39;;;;;;;5.97;3.13;;;0.00;99.90;;;0.07;87.05;100166.31;5017123;28;20865;-68
2022/12/11 00:42:07;;;;;;;9.73;3.15;;;0.10;99.90;;;0.04;87.93;100161.31;5024839;28;20279;-68
2022/12/11 00:44:34;;;;;;;6.95;3.83;;;0.10;99.90;;;0.11;87.32;100155.88;5032890;28;20264;-68
2022/12/11 00:47:02;;;;;;;3.47;2.97;;;0.10;99.90;;;0.14;87.95;100153.22;5036967;28;20203;-68
2022/12/11 00:49:29;;;;;;;6.60;3.40;;;0.10;99.90;;;0.13;87.17;100154.09;5032584;28;20200;-68
2022/12/11 00:51:56;;;;;;;8.00;4.63;;;0.20;99.90;;;0.12;87.82;100152.44;5031736;28;20224;-69
2022/12/11 00:54:23;;;;;;;6.63;2.30;;;0.20;99.90;;;0.14;87.93;100144.69;5026211;28;20285;-68
2022/12/11 00:56:50;;;;;;;2.55;2.25;;;0.20;99.90;;;0.07;88.39;100148.34;5044745;28;20203;-68
2022/12/11 00:59:16;;;;;;;3.78;3.30;;;0.20;99.90;;;0.07;87.68;100151.75;5044557;28;20225;-68
2022/12/11 01:01:43;;;;;;;9.35;4.25;;;0.20;99.90;;;0.24;87.47;100146.84;5041995;28;20281;-68
2022/12/11 01:04:10;;;;;;;3.60;2.95;;;0.20;99.90;;;-0.05;88.29;100150.50;5028707;28;20230;-68
2022/12/11 01:06:38;;;;;;;5.20;3.25;;;0.20;99.90;;;0.13;87.93;100154.09;5028490;28;20230;-69
2022/12/11 01:11:51;;;;;;;10.80;4.05;;;0.30;99.90;;;0.13;87.87;100151.53;5037349;28;20296;-69
2022/12/11 01:14:18;;;;;;;13.43;7.30;;;0.30;99.90;;;0.28;88.03;100160.41;5037605;28;20213;-68
2022/12/11 01:16:45;;;;;;;15.45;8.02;;;0.20;99.90;;;0.21;88.32;100166.66;5027314;28;20204;-68
2022/12/11 01:19:12;;;;;;;11.05;6.45;;;0.30;99.90;;;0.34;87.73;100165.31;5034190;28;20688;-68
2022/12/11 01:21:39;;;;;;;2.25;2.00;;;0.30;99.90;;;0.27;87.27;100149.31;5036260;28;20238;-70
2022/12/11 01:24:06;;;;;;;3.42;3.13;;;0.40;99.90;;;0.28;87.17;100161.22;5045370;28;20211;-68
2022/12/11 01:26:33;;;;;;;7.50;5.72;;;0.40;99.90;;;0.31;87.30;100162.84;5038836;28;20288;-68
2022/12/11 01:29:00;;;;;;;13.68;7.28;;;0.40;99.90;;;0.34;87.86;100161.00;5035710;28;20192;-69
2022/12/11 01:31:27;;;;;;;19.83;10.30;;;0.40;99.90;;;0.36;87.50;100176.34;5042364;28;20228;-68
2022/12/11 01:33:55;;;;;;;19.05;7.97;;;0.40;99.90;;;0.35;87.61;100161.84;5054760;28;20201;-68
2022/12/11 01:36:22;;;;;;;7.63;3.85;;;0.40;99.90;;;0.42;86.88;100156.44;5052754;28;20274;-67
2022/12/11 01:38:50;;;;;;;16.05;8.05;;;0.50;99.90;;;0.48;87.16;100157.91;5030251;28;20321;-68
2022/12/11 01:41:17;;;;;;;8.10;4.25;;;0.50;99.90;;;0.49;87.09;100154.47;5032692;28;20228;-69
2022/12/11 01:44:26;;;;;;;13.23;5.55;;;0.50;99.90;;;0.42;87.15;100156.44;4999905;28;20216;-69
2022/12/11 01:46:53;;;;;;;23.52;13.88;;;0.50;99.90;;;0.20;88.02;100176.06;5035384;28;20215;-68
2022/12/11 01:49:24;;;;;;;7.97;4.75;;;0.40;99.90;;;0.08;88.73;100175.69;5038026;28;20200;-68
2022/12/11 01:52:18;;;;;;;9.27;4.80;;;0.30;99.90;;;0.06;89.19;100165.50;5024279;28;20215;-68
2022/12/11 01:54:47;;;;;;;14.90;7.68;;;0.20;99.90;;;0.06;88.94;100169.78;5019065;28;20743;-70
2022/12/11 01:57:15;;;;;;;13.25;6.72;;;0.20;99.90;;;-0.01;89.74;100164.03;5038654;28;20211;-68
2022/12/11 01:59:44;;;;;;;11.20;6.32;;;0.20;99.90;;;0.09;89.19;100159.38;5047007;28;20199;-69
2022/12/11 02:02:19;;;;;;;12.98;5.97;;;0.20;99.90;;;0.02;90.28;100178.47;5036065;28;20231;-67
2022/12/11 02:04:48;;;;;;;10.45;5.82;;;0.20;99.90;;;0.16;89.27;100177.09;5020314;28;20229;-68
2022/12/11 02:07:15;;;;;;;7.68;3.60;;;0.20;99.90;;;0.09;89.14;100167.94;5052424;28;20209;-68
2022/12/11 02:09:45;;;;;;;3.30;1.95;;;0.20;99.90;;;-0.12;90.08;100155.88;5035500;28;20215;-69
2022/12/11 02:12:36;;;;;;;6.50;3.65;;;0.10;99.90;;;-0.17;91.17;100150.91;5017607;28;20694;-69
2022/12/11 02:15:21;;;;;;;7.40;3.33;;;0.00;99.90;;;-0.22;90.76;100152.81;5009184;28;20270;-69
2022/12/11 02:17:57;;;;;;;2.13;1.73;;;0.00;99.90;;;-0.19;90.58;100155.25;5044976;28;20209;-69
2022/12/11 02:20:29;;;;;;;4.18;2.55;;;0.00;99.90;;;-0.18;90.56;100161.25;5047056;28;20290;-69
2022/12/11 02:23:26;;;;;;;4.53;2.95;;;0.00;99.90;;;-0.21;90.44;100167.31;5036083;28;20214;-68
2022/12/11 02:26:22;;;;;;;10.45;5.75;;;-0.10;99.90;;;-0.23;90.39;100176.78;5026057;28;20253;-68
2022/12/11 02:29:01;;;;;;;11.30;6.72;;;-0.10;99.90;;;-0.19;90.84;100173.22;5036509;28;20256;-68
2022/12/11 02:31:46;;;;;;;10.68;6.22;;;-0.10;99.90;;;-0.21;91.56;100171.59;5037830;28;20219;-69
2022/12/11 02:34:39;;;;;;;10.82;6.15;;;-0.10;99.90;;;-0.05;90.51;100163.31;5034257;28;20256;-69
2022/12/11 02:37:13;;;;;;;15.00;6.03;;;0.00;99.90;;;0.01;90.06;100169.94;5001473;28;20205;-67
2022/12/11 02:39:42;;;;;;;11.38;5.60;;;0.00;99.90;;;0.00;89.94;100171.66;5015267;28;20204;-68
2022/12/11 02:42:11;;;;;;;13.00;5.47;;;0.10;99.90;;;0.06;89.75;100164.66;5028367;22;20241;-65
2022/12/11 02:44:40;;;;;;;5.07;3.80;;;0.10;99.90;;;0.08;89.47;100171.41;5001943;28;20292;-64
2022/12/11 02:47:13;;;;;;;7.22;4.18;;;0.10;99.90;;;0.08;89.33;100165.44;4994048;28;20206;-65
2022/12/11 02:49:43;;;;;;;9.95;5.40;;;0.10;99.90;;;0.08;88.89;100168.00;4996862;28;20250;-65
2022/12/11 02:52:13;;;;;;;16.20;6.38;;;0.10;99.90;;;0.12;88.99;100169.56;4996851;28;20231;-66
2022/12/11 02:54:43;;;;;;;11.63;5.45;;;0.10;99.90;;;0.17;88.56;100177.94;4990579;28;20209;-64
2022/12/11 02:57:33;;;;;;;13.13;6.97;;;0.20;99.90;;;0.20;88.54;100172.66;4996939;28;20266;-65
2022/12/11 03:00:00;;;;;;;11.77;5.75;;;0.20;99.90;;;0.18;88.34;100169.31;5008183;28;20204;-65
2022/12/11 03:02:27;;;;;;;5.53;3.05;;;0.20;99.90;;;0.13;88.62;100164.34;5010416;28;20230;-65
2022/12/11 03:04:56;;;;;;;3.40;2.83;;;0.20;99.90;;;0.11;88.63;100166.13;5000259;28;20807;-64
2022/12/11 03:07:34;;;;;;;1.65;1.25;;;0.20;99.90;;;0.10;88.08;100163.63;5014503;28;20253;-65
2022/12/11 03:10:03;;;;;;;4.75;2.28;;;0.20;99.90;;;-0.36;90.04;100164.47;4996740;28;20274;-64
2022/12/11 03:12:36;;;;;;;4.43;3.08;;;0.00;99.90;;;-0.21;89.76;100153.66;4980624;28;20264;-65
2022/12/11 03:15:08;;;;;;;7.10;2.78;;;-0.10;99.90;;;-0.08;89.73;100158.28;5009637;28;20205;-64
2022/12/11 03:18:06;;;;;;;3.65;3.30;;;0.00;99.90;;;0.04;89.52;100156.19;4992912;28;20644;-65
2022/12/11 03:21:37;;;;;;;5.75;3.78;;;0.00;99.90;;;0.04;89.80;100162.16;4993218;28;20705;-64
2022/12/11 03:24:16;;;;;;;11.68;5.65;;;0.00;99.90;;;0.06;89.81;100168.06;4952610;29;20766;-65
2022/12/11 03:26:51;;;;;;;11.85;6.03;;;0.10;99.90;;;0.22;89.39;100165.75;4942592;29;20238;-65
2022/12/11 03:29:30;;;;;;;12.82;6.50;;;0.20;99.90;;;0.29;89.33;100172.34;4983087;28;20228;-65
2022/12/11 03:32:10;;;;;;;13.45;6.93;;;0.20;99.90;;;0.23;89.59;100164.88;4996914;28;20228;-64
2022/12/11 03:35:02;;;;;;;9.23;4.25;;;0.20;99.90;;;0.41;88.86;100164.16;5001800;28;20619;-64
2022/12/11 03:37:35;;;;;;;4.30;3.05;;;0.30;99.90;;;0.46;88.81;100164.84;4995045;28;20208;-64
2022/12/11 03:40:16;;;;;;;13.00;5.55;;;0.40;99.90;;;0.58;88.05;100179.75;4993585;28;20205;-65
2022/12/11 03:42:48;;;;;;;9.35;5.03;;;0.40;99.90;;;0.48;88.51;100169.03;5010618;28;20214;-64
2022/12/11 03:45:18;;;;;;;7.57;3.63;;;0.50;99.90;;;0.52;88.64;100174.88;4996340;28;20229;-64
2022/12/11 03:47:46;;;;;;;3.90;2.42;;;0.50;99.90;;;0.51;88.24;100168.88;4994654;28;20195;-64
2022/12/11 03:50:15;;;;;;;2.47;2.28;;;0.50;99.90;;;0.49;88.03;100172.44;4994557;28;20206;-64
2022/12/11 03:52:46;;;;;;;3.95;3.42;;;0.50;99.90;;;0.56;87.79;100172.13;4994946;28;20205;-65
2022/12/11 03:55:16;;;;;;;3.40;2.55;;;0.50;99.90;;;0.32;88.88;100170.47;4995949;28;20212;-64
2022/12/11 03:57:43;;;;;;;1.85;1.67;;;0.50;99.90;;;0.36;89.18;100166.09;5012107;28;20210;-65
2022/12/11 04:00:15;;;;;;;6.15;3.42;;;0.50;99.90;;;0.44;88.44;100167.47;5012794;28;20212;-64
2022/12/11 04:02:43;;;;;;;5.85;3.65;;;0.40;99.90;;;0.40;88.60;100162.50;5011475;28;20235;-64
2022/12/11 04:05:11;;;;;;;6.80;3.65;;;0.40;99.90;;;0.33;89.54;100173.88;4995137;28;20225;-65
2022/12/11 04:07:38;;;;;;;2.75;1.65;;;0.50;99.90;;;0.37;89.23;100162.59;5012408;28;20209;-66
2022/12/11 04:10:05;;;;;;;4.55;2.67;;;0.40;99.90;;;0.37;89.14;100168.59;5011840;28;20217;-64
2022/12/11 04:12:32;;;;;;;4.32;2.65;;;0.40;99.90;;;0.32;89.36;100162.78;5011720;28;20781;-64
2022/12/11 04:15:01;;;;;;;3.35;2.05;;;0.40;99.90;;;0.34;89.61;100161.00;5012019;28;20210;-64
2022/12/11 04:26:13;;;;;;;4.88;3.03;;;0.30;99.90;;;0.26;89.92;100159.59;5012269;28;20225;-63
2022/12/11 04:28:41;;;;;;;11.90;4.25;;;0.30;99.90;;;0.29;90.60;100156.94;4992797;28;20251;-64
2022/12/11 04:31:15;;;;;;;5.88;3.80;;;0.40;99.90;;;0.24;90.92;100158.81;4977357;28;20650;-64
2022/12/11 04:33:42;;;;;;;5.57;2.95;;;0.30;99.90;;;0.30;91.05;100158.63;4995191;28;20206;-65
2022/12/11 04:36:10;;;;;;;6.50;3.30;;;0.30;99.90;;;0.22;90.76;100161.47;5010633;28;20209;-65
2022/12/11 04:38:38;;;;;;;5.10;2.55;;;0.30;99.90;;;0.32;90.84;100161.97;5011074;28;20221;-65
2022/12/11 04:41:10;;;;;;;3.05;2.38;;;0.40;99.90;;;0.22;91.15;100158.06;5010858;28;20616;-65
2022/12/11 04:43:37;;;;;;;4.80;2.25;;;0.30;99.90;;;0.29;90.37;100151.81;5010265;28;20228;-64
2022/12/11 04:46:14;;;;;;;5.82;3.15;;;0.40;99.90;;;0.32;90.86;100159.41;5011211;28;20713;-63
2022/12/11 04:48:42;;;;;;;5.47;3.05;;;0.40;99.90;;;0.37;90.44;100157.47;5011201;28;20205;-65
2022/12/11 04:51:09;;;;;;;5.93;3.00;;;0.40;99.90;;;0.42;90.76;100151.28;5011334;28;20272;-63
2022/12/11 04:53:37;;;;;;;7.03;4.35;;;0.50;99.90;;;0.43;91.13;100157.25;4992534;28;20265;-63
2022/12/11 04:56:06;;;;;;;7.85;5.55;;;0.50;99.90;;;0.46;90.95;100155.41;5011298;28;20256;-63
2022/12/11 04:58:34;;;;;;;12.82;7.00;;;0.50;99.90;;;0.55;90.80;100154.22;4992832;28;20218;-65
2022/12/11 05:01:20;;;;;;;10.30;6.38;;;0.50;99.90;;;0.60;90.82;100158.28;5011869;28;20276;-65
2022/12/11 05:03:48;;;;;;;11.32;6.05;;;0.60;99.90;;;0.65;90.60;100152.97;5010117;28;20686;-65
2022/12/11 05:06:15;;;;;;;10.30;6.22;;;0.60;99.90;;;0.66;90.84;100155.47;5012079;28;20230;-64
2022/12/11 05:08:42;;;;;;;11.57;6.90;;;0.70;99.90;;;0.68;90.47;100147.72;5007202;28;20251;-64
2022/12/11 05:11:13;;;;;;;4.97;3.63;;;0.70;99.90;;;0.70;89.42;100143.34;5010002;28;20226;-64
2022/12/11 05:13:40;;;;;;;10.68;5.72;;;0.70;99.90;;;0.66;89.41;100141.81;5010171;28;20209;-65
2022/12/11 05:16:10;;;;;;;17.20;7.03;;;0.70;99.90;;;0.73;89.50;100140.66;5008309;28;20248;-64
2022/12/11 05:18:37;;;;;;;9.55;3.95;;;0.70;99.90;;;0.73;89.15;100138.94;4992136;28;20207;-64
2022/12/11 05:21:08;;;;;;;8.32;4.25;;;0.70;99.90;;;0.59;89.21;100128.38;5010286;28;20232;-64
2022/12/11 05:23:36;;;;;;;3.90;3.30;;;0.70;99.90;;;0.46;90.06;100136.59;4991239;28;20214;-64
2022/12/11 05:26:07;;;;;;;7.18;3.72;;;0.60;99.90;;;0.40;90.84;100126.56;4993230;28;20225;-64
2022/12/11 05:28:37;;;;;;;3.15;2.88;;;0.50;99.90;;;0.35;90.71;100129.31;5008943;28;20200;-64
2022/12/11 05:31:09;;;;;;;3.90;2.45;;;0.50;99.90;;;0.36;90.74;100130.97;5008875;28;20221;-64
2022/12/11 05:33:36;;;;;;;4.78;2.97;;;0.50;99.90;;;0.35;91.04;100131.03;5008774;28;20287;-66
2022/12/11 05:36:04;;;;;;;2.67;2.17;;;0.50;99.90;;;0.41;90.56;100130.78;5010230;28;20206;-64
2022/12/11 05:38:30;;;;;;;4.10;2.35;;;0.50;99.90;;;0.18;91.83;100133.41;5009140;28;20205;-62
2022/12/11 05:41:04;;;;;;;1.40;1.13;;;0.40;99.90;;;0.11;92.08;100144.81;5006031;28;20286;-65
2022/12/11 05:43:35;;;;;;;2.20;1.23;;;0.30;99.90;;;-0.09;91.68;100141.25;4992494;28;20852;-64
2022/12/11 05:46:15;;;;;;;4.90;1.60;;;0.30;99.90;;;-0.15;90.80;100144.00;5008878;28;20225;-64
2022/12/11 05:48:45;;;;;;;4.63;1.30;;;0.10;99.90;;;-0.03;90.73;100146.16;5009567;28;20917;-65
2022/12/11 05:51:14;;;;;;;1.33;1.25;;;0.10;99.90;;;-0.16;90.36;100144.06;5008448;28;20251;-64
2022/12/11 05:53:42;;;;;;;2.67;1.85;;;0.10;99.90;;;-0.08;89.52;100145.47;5010058;28;20202;-65
2022/12/11 05:56:16;;;;;;;4.03;2.67;;;0.10;99.90;;;-0.07;89.61;100136.91;5009307;28;20205;-65
2022/12/11 05:58:45;;;;;;;3.20;2.15;;;0.10;99.90;;;-0.06;89.53;100128.28;5012025;28;20204;-65
2022/12/11 06:01:21;;;;;;;4.00;2.65;;;0.00;99.90;;;-0.15;89.44;100126.06;5005219;28;20254;-64
2022/12/11 06:03:48;;;;;;;3.65;2.85;;;0.00;99.90;;;-0.23;89.52;100125.50;5013744;28;20210;-64
2022/12/11 06:06:15;;;;;;;8.23;4.60;;;0.00;99.90;;;-0.21;90.24;100126.28;5012790;28;20216;-65
2022/12/11 06:08:42;;;;;;;8.00;4.95;;;-0.10;99.90;;;-0.25;89.86;100129.84;5014102;28;20246;-64
2022/12/11 06:11:14;;;;;;;8.50;3.15;;;-0.10;99.90;;;-0.25;89.79;100134.13;5013667;28;20227;-64
2022/12/11 06:13:49;;;;;;;6.85;3.83;;;-0.10;99.90;;;-0.25;89.40;100134.13;5014115;28;20771;-64
2022/12/11 06:16:16;;;;;;;6.88;4.65;;;-0.10;99.90;;;-0.26;89.66;100132.47;5014006;28;20250;-64
2022/12/11 06:18:44;;;;;;;13.52;6.30;;;-0.10;99.90;;;-0.32;90.05;100125.00;5012367;28;20224;-65
2022/12/11 06:21:24;;;;;;;10.85;5.75;;;-0.20;99.90;;;-0.25;89.57;100124.72;5004782;28;20735;-64
2022/12/11 06:23:53;;;;;;;8.70;4.43;;;-0.20;99.90;;;-0.29;89.84;100112.06;5012724;28;20207;-64
2022/12/11 06:26:21;;;;;;;3.45;1.38;;;-0.20;99.90;;;-0.52;90.18;100118.03;5013914;28;20726;-64
2022/12/11 06:28:48;;;;;;;4.90;2.33;;;-0.20;99.90;;;-0.52;90.13;100115.47;5013237;28;20258;-65
2022/12/11 06:31:16;;;;;;;3.90;2.78;;;-0.30;99.90;;;-0.44;89.84;100104.94;5013991;28;20286;-65
2022/12/11 06:33:43;;;;;;;8.38;4.20;;;-0.30;99.90;;;-0.38;90.05;100108.09;5012255;28;20610;-64
2022/12/11 06:36:16;;;;;;;9.48;5.43;;;-0.30;99.90;;;-0.28;89.13;100106.06;5012409;28;20619;-65
2022/12/11 06:38:43;;;;;;;16.13;5.85;;;-0.20;99.90;;;-0.21;89.23;100100.66;4994369;28;20681;-65
2022/12/11 06:41:11;;;;;;;3.65;2.17;;;-0.20;99.90;;;-0.49;89.97;100114.53;5013567;28;20259;-65
2022/12/11 06:43:39;;;;;;;0.85;0.85;;;-0.20;99.90;;;-0.79;91.57;100111.28;5009568;28;20737;-65
2022/12/11 06:46:10;;;;;;;1.80;1.40;;;-0.40;99.90;;;-0.68;91.49;100110.94;5009462;28;20247;-65
2022/12/11 06:48:37;;;;;;;1.73;1.63;;;-0.40;99.90;;;-0.61;90.94;100115.78;5008130;28;20235;-65
2022/12/11 06:51:07;;;;;;;3.75;2.38;;;-0.40;99.90;;;-0.59;89.87;100111.44;5014496;28;20602;-65
2022/12/11 06:53:34;;;;;;;1.60;0.95;;;-0.40;99.90;;;-0.60;90.81;100117.47;4994511;28;20211;-65
2022/12/11 06:56:07;;;;;;;1.05;1.05;;;-0.40;99.90;;;-0.65;90.88;100111.66;5013285;28;20211;-65
2022/12/11 06:58:36;;;;;;;2.17;2.00;;;-0.40;99.90;;;-0.70;91.18;100110.97;5011695;28;20206;-65
2022/12/11 07:01:11;;;;;;;1.75;1.52;;;-0.50;99.90;;;-0.73;91.16;100113.63;5013112;28;20227;-64
2022/12/11 07:03:38;;;;;;;1.42;1.40;;;-0.50;99.90;;;-0.90;92.08;100114.22;5001882;28;20281;-64
2022/12/11 07:06:05;;;;;;;2.13;1.98;;;-0.50;99.90;;;-0.85;91.90;100119.16;5014049;28;20219;-64
2022/12/11 07:08:32;;;;;;;2.28;1.85;;;-0.60;99.90;;;-0.64;90.94;100126.16;5009633;28;20203;-65
2022/12/11 07:11:09;;;;;;;3.58;2.15;;;-0.50;99.90;;;-0.56;91.06;100123.31;5013187;28;20219;-65
2022/12/11 07:13:36;;;;;;;4.00;1.88;;;-0.50;99.90;;;-0.47;89.88;100123.81;4994884;28;20753;-64
2022/12/11 07:16:09;;;;;;;3.00;1.95;;;-0.40;99.90;;;-0.50;90.47;100117.97;5012218;28;20209;-64
2022/12/11 07:18:38;;;;;;;2.63;1.60;;;-0.40;99.90;;;-0.57;90.36;100125.03;5003364;28;20676;-65
2022/12/11 07:21:06;;;;;;;2.30;1.20;;;-0.40;99.90;;;-0.62;90.95;100119.25;5012719;28;20219;-64
2022/12/11 07:23:34;;;;;;;3.13;2.60;;;-0.40;99.90;;;-0.57;90.68;100119.91;5011471;28;20204;-64
2022/12/11 07:26:07;;;;;;;0.90;0.90;;;-0.40;99.90;;;-0.74;91.43;100119.63;5012060;28;20769;-65
2022/12/11 07:28:35;;;;;;;2.50;1.40;;;-0.50;99.90;;;-0.86;91.84;100115.78;5011827;28;20207;-64
2022/12/11 07:31:12;;;;;;;0.90;0.90;;;-0.50;99.90;;;-0.91;92.03;100122.78;5012927;28;20219;-64
2022/12/11 07:33:39;;;;;;;1.15;0.80;;;-0.60;99.90;;;-0.76;92.17;100121.41;5011332;28;20199;-65
2022/12/11 07:36:08;;;;;;;2.55;1.90;;;-0.60;99.90;;;-0.73;91.14;100131.56;4994498;28;20214;-65
2022/12/11 07:38:36;;;;;;;5.03;0.88;;;-0.50;99.90;;;-0.63;90.65;100138.03;4993591;28;20343;-65
2022/12/11 07:41:11;;;;;;;1.92;1.00;;;-0.50;99.90;;;-0.64;91.74;100125.31;5012578;28;20236;-65
2022/12/11 07:43:38;;;;;;;1.55;1.42;;;-0.50;99.90;;;-0.73;91.29;100126.44;5011766;28;20781;-65
2022/12/11 07:46:15;;;;;;;6.47;3.30;;;-0.50;99.90;;;-0.49;90.88;100128.16;5012508;28;20227;-65
2022/12/11 07:48:44;;;;;;;2.90;2.13;;;-0.40;99.90;;;-0.39;90.67;100142.34;5011820;28;20203;-65
2022/12/11 07:51:17;;;;;;;4.30;1.88;;;-0.30;99.90;;;-0.66;90.13;100134.75;5011961;28;20223;-66
2022/12/11 07:53:47;;;;;;;1.58;1.33;;;-0.30;99.90;;;-0.48;90.62;100145.22;5004517;28;20207;-64
2022/12/11 07:56:15;;;;;;;0.40;0.40;;;-0.30;99.90;;;-0.25;89.89;100127.28;4992759;28;20311;-66
2022/12/11 07:58:43;;;;;;;3.13;1.80;;;-0.20;99.90;;;-0.12;88.85;100138.78;5011390;28;20204;-65
2022/12/11 08:01:20;;;;;;;0.50;0.50;;;-0.10;99.90;;;-0.12;88.88;100131.09;5005318;28;20370;-66
2022/12/11 08:03:48;;;;;;;2.97;1.35;;;0.00;99.90;;;0.22;87.12;100132.41;5004624;28;20234;-65
2022/12/11 08:06:15;;;;;;;4.57;2.38;;;0.20;99.90;;;0.52;85.96;100139.78;5011998;28;20715;-65
2022/12/11 08:08:43;;;;;;;3.80;2.03;;;0.30;99.90;;;0.61;84.80;100141.16;5012147;28;20208;-64
2022/12/11 08:11:13;;;;;;;5.65;2.20;;;0.50;99.90;;;0.71;84.33;100133.03;5011759;28;20227;-65
2022/12/11 08:13:42;;;;;;;2.70;1.58;;;0.70;99.90;;;1.20;82.36;100129.28;5004037;28;20208;-63
2022/12/11 08:16:13;;;;;;;7.20;2.63;;;0.90;99.90;;;1.27;82.28;100135.00;5010716;28;20209;-64
2022/12/11 08:18:42;;;;;;;3.70;2.25;;;1.00;99.90;;;2.36;80.68;100136.16;5010941;28;20205;-64
2022/12/11 08:21:14;;;;;;;10.95;3.55;;;1.50;99.90;;;3.46;74.16;100132.47;4991040;28;20222;-63
2022/12/11 08:23:42;;;;;;;4.85;3.42;;;2.20;99.90;;;3.74;72.30;100127.56;5010233;28;20268;-64
2022/12/11 08:26:16;;;;;;;7.85;2.95;;;2.70;99.90;;;3.63;71.77;100138.44;5008431;28;20582;-63
2022/12/11 08:28:44;;;;;;;2.20;2.05;;;2.90;99.90;;;3.57;70.69;100143.06;5011325;28;20198;-63
2022/12/11 08:31:13;;;;;;;4.20;3.00;;;3.00;99.90;;;3.48;71.71;100138.38;5001687;28;20224;-60
2022/12/11 08:33:40;;;;;;;8.43;4.05;;;3.00;99.90;;;3.71;71.37;100128.56;5003694;28;20199;-63
2022/12/11 08:36:12;;;;;;;6.72;3.80;;;3.10;99.90;;;3.84;70.21;100121.84;5009586;28;20199;-63
2022/12/11 08:38:39;;;;;;;3.10;2.65;;;3.20;99.90;;;3.79;70.80;100125.59;5009533;28;20225;-61
2022/12/11 08:41:19;;;;;;;5.10;3.10;;;3.30;99.90;;;3.67;71.71;100126.22;5044517;23;20226;-67
2022/12/11 08:43:47;;;;;;;5.07;3.20;;;3.30;99.90;;;3.57;71.71;100132.75;5029163;28;20203;-68
2022/12/11 08:46:14;;;;;;;5.53;3.45;;;3.20;99.90;;;3.26;72.46;100130.06;5028998;28;20231;-68
2022/12/11 08:48:42;;;;;;;4.63;3.10;;;3.10;99.90;;;2.96;73.13;100142.72;5015194;28;20198;-68
2022/12/11 08:51:15;;;;;;;7.95;3.97;;;2.90;99.90;;;2.76;74.43;100148.81;5031320;28;20230;-68
2022/12/11 08:53:42;;;;;;;4.85;3.53;;;2.70;99.90;;;2.16;76.88;100149.09;5026023;28;20301;-70
2022/12/11 08:56:15;;;;;;;8.13;3.30;;;2.40;99.90;;;2.16;77.28;100146.50;5031740;28;20626;-67
2022/12/11 08:58:43;;;;;;;5.75;3.40;;;2.20;99.90;;;2.02;78.33;100152.25;5032442;28;20198;-66
2022/12/11 09:01:13;;;;;;;2.72;2.53;;;2.00;99.90;;;1.89;78.76;100152.88;5016661;28;20628;-66
2022/12/11 09:03:41;;;;;;;5.97;2.63;;;1.90;99.90;;;1.65;80.47;100148.81;5033527;28;20202;-66
2022/12/11 09:06:15;;;;;;;6.55;3.58;;;1.70;99.90;;;1.51;80.83;100139.13;5030859;28;20662;-66
2022/12/11 09:08:44;;;;;;;3.25;2.45;;;1.60;99.90;;;1.55;80.79;100133.75;5017930;28;20209;-67
2022/12/11 09:11:22;;;;;;;5.93;3.20;;;1.50;99.90;;;1.47;81.04;100137.56;5010935;28;20229;-66
2022/12/11 09:13:49;;;;;;;7.43;4.25;;;1.50;99.90;;;1.54;81.15;100150.09;5031748;28;20203;-67
2022/12/11 09:16:19;;;;;;;1.40;1.33;;;1.40;99.90;;;1.52;81.70;100146.75;5012223;28;20204;-66
2022/12/11 09:18:49;;;;;;;5.65;2.75;;;1.50;99.90;;;1.45;81.41;100139.38;5029453;28;20205;-67
2022/12/11 09:21:19;;;;;;;3.60;1.92;;;1.50;99.90;;;1.53;81.40;100139.91;5023151;28;20543;-68
2022/12/11 09:23:47;;;;;;;6.43;3.75;;;1.50;99.90;;;1.65;81.15;100130.81;5028383;28;20209;-67
2022/12/11 09:26:16;;;;;;;6.97;3.78;;;1.50;99.90;;;1.73;81.23;100124.44;5012798;28;20576;-67
2022/12/11 09:28:44;;;;;;;4.75;2.00;;;1.50;99.90;;;1.69;81.48;100119.47;5029636;28;20212;-66
2022/12/11 09:31:23;;;;;;;2.67;2.22;;;1.60;99.90;;;1.86;80.80;100135.00;5026997;28;20219;-66
2022/12/11 09:33:54;;;;;;;10.07;4.10;;;1.70;99.90;;;1.98;80.06;100134.47;5030001;28;20264;-70
2022/12/11 09:36:21;;;;;;;1.63;0.80;;;1.80;99.90;;;2.05;79.80;100134.13;5031065;28;20194;-67
2022/12/11 09:38:48;;;;;;;9.85;4.38;;;1.80;99.90;;;2.21;79.78;100122.25;5031206;28;20285;-66
2022/12/11 09:41:21;;;;;;;8.23;3.67;;;1.90;99.90;;;2.28;79.00;100128.75;5030312;28;20606;-70
2022/12/11 09:44:11;;;;;;;6.45;3.92;;;2.00;99.90;;;2.38;78.04;100134.34;5026541;28;20225;-66
2022/12/11 09:46:38;;;;;;;11.60;5.35;;;2.00;99.90;;;2.55;78.59;100142.13;5011558;28;20227;-68
2022/12/11 09:49:31;;;;;;;6.28;4.38;;;2.10;99.90;;;2.57;78.48;100131.72;5013340;28;20203;-69
2022/12/11 09:52:17;;;;;;;5.78;3.35;;;2.20;99.90;;;2.61;77.68;100131.53;5032319;28;20222;-68
2022/12/11 09:54:58;;;;;;;4.95;2.90;;;2.30;99.90;;;2.69;77.45;100134.56;5014072;28;20666;-66
2022/12/11 09:57:32;;;;;;;14.40;6.63;;;2.30;99.90;;;2.57;77.33;100132.56;5021329;28;20209;-67
2022/12/11 10:00:32;;;;;;;14.88;7.07;;;2.30;99.90;;;2.66;76.94;100129.53;5008582;28;20637;-67
2022/12/11 10:03:22;;;;;;;13.65;5.50;;;2.40;99.90;;;2.87;76.94;100131.13;5027839;28;20217;-69
2022/12/11 10:06:11;;;;;;;8.35;3.72;;;2.40;99.90;;;3.02;75.29;100122.59;5030924;28;20666;-66
2022/12/11 10:09:11;;;;;;;5.95;3.55;;;2.50;99.90;;;3.01;76.38;100123.53;5013442;28;20245;-70
2022/12/11 10:12:11;;;;;;;7.82;5.00;;;2.60;99.90;;;3.26;75.52;100122.34;5013470;28;20621;-70
2022/12/11 10:15:21;;;;;;;15.32;6.65;;;2.70;99.90;;;3.35;74.70;100117.53;5033374;28;20214;-70
2022/12/11 10:17:48;;;;;;;17.38;8.20;;;2.80;99.90;;;3.48;75.25;100110.84;5029993;28;20256;-67
2022/12/11 10:20:35;;;;;;;16.55;7.18;;;2.90;99.90;;;3.71;75.22;100101.91;5015033;28;20206;-67
2022/12/11 10:23:09;;;;;;;9.52;3.95;;;3.00;99.90;;;3.57;74.83;100099.22;5017745;28;20210;-66
2022/12/11 10:25:41;;;;;;;21.08;9.80;;;3.10;99.90;;;3.50;74.67;100100.44;5015221;28;20219;-67
2022/12/11 10:28:18;;;;;;;5.50;3.05;;;3.10;99.90;;;3.27;75.24;100100.78;5030344;28;20218;-69
2022/12/11 10:31:18;;;;;;;1.05;0.95;;;3.00;99.90;;;3.05;76.97;100103.59;5023860;28;20207;-67
2022/12/11 10:34:12;;;;;;;8.85;4.70;;;2.90;99.90;;;2.93;77.56;100102.47;5031458;28;20214;-68
2022/12/11 10:36:41;;;;;;;10.35;5.10;;;2.70;99.90;;;2.57;78.47;100100.81;5029634;28;20203;-67
2022/12/11 10:39:20;;;;;;;9.15;5.03;;;2.50;99.90;;;2.61;78.75;100100.63;5025344;28;20210;-67
2022/12/11 10:41:50;;;;;;;4.00;2.75;;;2.40;99.90;;;2.60;79.20;100087.81;5029411;28;20238;-67
2022/12/11 10:44:21;;;;;;;8.80;4.47;;;2.40;99.90;;;2.54;79.05;100088.94;5034103;28;20203;-66
2022/12/11 10:47:12;;;;;;;3.60;2.03;;;2.40;99.90;;;2.66;79.09;100087.53;5017139;28;20234;-67
2022/12/11 10:49:52;;;;;;;15.45;7.15;;;2.40;99.90;;;2.54;79.89;100083.78;5034799;28;20206;-67
2022/12/11 10:52:27;;;;;;;12.60;6.57;;;2.40;99.90;;;2.78;79.17;100090.34;5016845;28;20701;-67